Loma Rica, California
Current Conditions -  °F | °C
As of 1:58 AM on Friday 31 Oct 2014 (Local Time) from KBAB Reporting Station
Broken Clouds Broken Clouds  
Wind Chill: 61°   Ceiling: 19000
Heat Index: 61°   Visibility: 10mi
Dew Point: 50°   Wind: 12mph
Humidity: 68%   Direction: 130°SE
Pressure: 29.88"   Gusts: NA
Location:  39.1912°N, 121.489°W
Report Text: KBAB 310858Z AUTO 13010KT 10SM BKN190 16/10 A2988 RMK AO2 SLP193 T01610102 53010 $
Loading
Personal Weather Stations






























Interactive Weather Map
Tropical Storm Tracking
New forecast layout! Learn more

10-Day Weather Forecast

Advertisements
Track Severe Weather on mobile